Time;durP1;ratioP1;P1;durP2;ratioP2;P2;SDS_P1;SDS_P2;PMS_P1;PMS_P2;Temp;Humidity;BMP_temperature;BMP_pressure;BME280_temperature;BME280_humidity;BME280_pressure;Samples;Min_cycle;Max_cycle;Signal;HPM_P1;HPM_P2
2023/01/14 00:01:51;;;;;;;24.77;4.00;;;6.60;99.90;;;;;;5051743;28;20059;-50
2023/01/14 00:04:17;;;;;;;22.63;3.65;;;7.40;99.90;;;;;;5052225;28;20592;-51
2023/01/14 00:06:43;;;;;;;25.60;4.25;;;6.40;99.90;;;;;;5051773;28;20040;-49
2023/01/14 00:09:12;;;;;;;36.13;5.60;;;6.60;99.90;;;;;;5049198;28;20413;-49
2023/01/14 00:11:47;;;;;;;22.45;3.58;;;6.50;99.90;;;;;;5054458;28;21014;-50
2023/01/14 00:14:21;;;;;;;23.42;4.25;;;6.50;99.90;;;;;;5055530;28;20057;-48
2023/01/14 00:16:48;;;;;;;19.75;3.67;;;6.50;99.90;;;;;;5055078;28;20040;-51
2023/01/14 00:19:15;;;;;;;23.48;4.20;;;6.40;99.90;;;;;;5053694;28;20050;-52
2023/01/14 00:21:43;;;;;;;20.10;3.58;;;6.40;99.90;;;;;;5054593;28;20072;-49
2023/01/14 00:24:10;;;;;;;25.15;3.72;;;6.40;99.90;;;;;;5053394;28;20049;-51
2023/01/14 00:26:35;;;;;;;23.20;3.22;;;6.30;99.90;;;;;;5055589;28;20063;-49
2023/01/14 00:29:01;;;;;;;20.85;3.65;;;6.50;99.90;;;;;;5054446;28;20045;-50
2023/01/14 00:31:28;;;;;;;20.45;3.28;;;6.00;99.90;;;;;;5054705;28;20233;-47
2023/01/14 00:33:56;;;;;;;24.27;3.97;;;6.50;99.90;;;;;;5054857;28;20370;-50
2023/01/14 00:36:24;;;;;;;18.65;3.08;;;6.50;99.90;;;;;;5054491;28;20043;-49
2023/01/14 00:38:51;;;;;;;22.67;3.58;;;6.60;99.90;;;;;;5056112;28;20076;-52
2023/01/14 00:41:20;;;;;;;19.67;3.05;;;6.60;99.90;;;;;;5055981;28;20048;-47
2023/01/14 00:43:48;;;;;;;22.17;4.30;;;6.60;99.90;;;;;;5056037;28;20028;-50
2023/01/14 00:46:20;;;;;;;18.27;2.63;;;7.60;99.90;;;;;;5055558;28;20064;-51
2023/01/14 00:48:46;;;;;;;19.65;2.58;;;6.70;99.90;;;;;;5055412;28;20056;-49
2023/01/14 00:51:13;;;;;;;16.58;2.80;;;6.70;99.90;;;;;;5055308;28;20403;-51
2023/01/14 00:53:39;;;;;;;19.17;3.50;;;6.80;99.90;;;;;;5056402;28;20044;-50
2023/01/14 00:56:06;;;;;;;20.30;3.67;;;6.80;99.90;;;;;;5056678;28;20056;-50
2023/01/14 00:58:32;;;;;;;21.58;2.53;;;6.70;99.90;;;;;;5053162;28;20199;-49
2023/01/14 01:00:58;;;;;;;20.70;2.95;;;6.80;99.90;;;;;;5055469;28;20151;-51
2023/01/14 01:03:24;;;;;;;21.38;2.83;;;6.70;99.90;;;;;;5054382;28;20044;-50
2023/01/14 01:05:50;;;;;;;31.55;4.05;;;8.20;99.90;;;;;;5055336;28;20049;-49
2023/01/14 01:08:18;;;;;;;22.52;2.75;;;7.00;99.90;;;;;;5054730;28;20504;-50
2023/01/14 01:10:49;;;;;;;17.98;4.18;;;6.70;99.90;;;;;;5053825;28;20425;-47
2023/01/14 01:13:14;;;;;;;23.17;4.65;;;7.30;99.90;;;;;;5053691;28;20565;-52
2023/01/14 01:15:42;;;;;;;20.13;2.95;;;6.80;99.90;;;;;;5054269;28;20044;-48
2023/01/14 01:18:10;;;;;;;20.85;3.05;;;6.90;99.90;;;;;;5054311;28;20129;-50
2023/01/14 01:20:36;;;;;;;28.42;3.30;;;6.90;99.90;;;;;;5054082;28;20112;-51
2023/01/14 01:23:02;;;;;;;18.17;3.30;;;6.90;99.90;;;;;;5052783;28;20390;-49
2023/01/14 01:25:29;;;;;;;18.77;2.83;;;6.70;99.90;;;;;;5053877;28;20044;-48
2023/01/14 01:27:55;;;;;;;25.00;3.33;;;6.80;99.90;;;;;;5051622;28;20068;-50
2023/01/14 01:30:22;;;;;;;18.83;3.42;;;6.80;99.90;;;;;;5054419;28;20036;-51
2023/01/14 01:32:48;;;;;;;20.42;2.92;;;8.00;99.90;;;;;;5053827;28;20056;-51
2023/01/14 01:35:13;;;;;;;23.38;3.95;;;6.70;99.90;;;;;;5053298;28;20777;-51
2023/01/14 01:37:39;;;;;;;18.92;2.33;;;6.70;99.90;;;;;;5053433;28;20040;-50
2023/01/14 01:40:06;;;;;;;22.90;3.22;;;8.50;99.90;;;;;;5054636;28;20058;-49
2023/01/14 01:42:34;;;;;;;20.05;3.28;;;6.70;99.90;;;;;;5052267;28;20048;-51
2023/01/14 01:45:41;;;;;;;18.40;3.13;;;6.80;99.90;;;;;;5051758;28;20127;-49
2023/01/14 01:48:14;;;;;;;24.05;3.47;;;6.60;99.90;;;;;;5051493;28;20092;-51
2023/01/14 01:50:41;;;;;;;21.77;2.83;;;6.60;99.90;;;;;;5053170;28;20044;-52
2023/01/14 01:53:07;;;;;;;16.42;3.03;;;6.50;99.90;;;;;;5053114;28;20048;-50
2023/01/14 01:55:36;;;;;;;22.08;3.47;;;6.60;99.90;;;;;;5053088;28;20044;-51
2023/01/14 01:58:04;;;;;;;22.35;3.88;;;6.50;99.90;;;;;;5052733;28;20074;-51
2023/01/14 02:00:29;;;;;;;25.85;3.78;;;6.60;99.90;;;;;;5054041;28;20113;-49
2023/01/14 02:03:06;;;;;;;21.25;4.97;;;7.20;99.90;;;;;;5052692;28;20436;-51
2023/01/14 02:05:32;;;;;;;22.52;3.35;;;6.60;99.90;;;;;;5053538;28;20396;-51
2023/01/14 02:07:59;;;;;;;25.45;3.97;;;6.50;99.90;;;;;;5052066;28;20044;-51
2023/01/14 02:11:02;;;;;;;20.02;3.47;;;6.40;99.90;;;;;;5053840;28;20127;-50
2023/01/14 02:13:39;;;;;;;19.85;3.72;;;6.50;99.90;;;;;;5053226;28;20056;-51
2023/01/14 02:16:37;;;;;;;23.40;4.15;;;6.50;99.90;;;;;;5054123;28;20049;-50
2023/01/14 02:19:17;;;;;;;24.65;5.15;;;6.50;99.90;;;;;;5054705;28;20056;-51
2023/01/14 02:22:06;;;;;;;21.45;2.95;;;6.50;99.90;;;;;;5054140;28;20094;-51
2023/01/14 02:24:56;;;;;;;27.33;4.45;;;6.40;99.90;;;;;;5051914;28;20044;-49
2023/01/14 02:27:37;;;;;;;18.02;3.28;;;6.40;99.90;;;;;;5054454;28;20083;-48
2023/01/14 02:30:17;;;;;;;18.67;3.53;;;6.30;99.90;;;;;;5054670;28;20052;-49
2023/01/14 02:32:54;;;;;;;22.92;3.53;;;6.30;99.90;;;;;;5052966;28;20064;-50
2023/01/14 02:35:48;;;;;;;26.45;3.63;;;6.20;99.90;;;;;;5053074;28;20049;-49
2023/01/14 02:39:01;;;;;;;22.38;3.78;;;6.20;99.90;;;;;;5053329;28;20419;-50
2023/01/14 02:44:38;;;;;;;26.40;3.45;;;6.30;99.90;;;;;;5052952;28;20051;-52
2023/01/14 02:47:12;;;;;;;22.85;3.22;;;6.10;99.90;;;;;;5050968;28;20106;-50
2023/01/14 02:49:42;;;;;;;24.20;4.40;;;6.10;99.90;;;;;;5052296;28;20091;-52
2023/01/14 02:52:08;;;;;;;31.55;3.83;;;;;;;;;;5051638;28;20051;-48
2023/01/14 02:54:34;;;;;;;32.30;5.40;;;6.00;99.90;;;;;;5052042;28;20083;-51
2023/01/14 02:57:34;;;;;;;25.08;4.07;;;6.10;99.90;;;;;;5052983;28;20076;-49
2023/01/14 03:00:26;;;;;;;25.58;3.95;;;6.00;99.90;;;;;;5052000;28;20048;-47
2023/01/14 03:03:01;;;;;;;29.35;4.13;;;6.10;99.90;;;;;;5051374;28;20046;-51
2023/01/14 03:05:51;;;;;;;16.65;3.45;;;6.00;99.90;;;;;;5052408;28;20571;-50
2023/01/14 03:08:27;;;;;;;23.55;3.25;;;6.00;99.90;;;;;;5052298;28;20036;-49
2023/01/14 03:11:06;;;;;;;20.77;3.80;;;6.10;99.90;;;;;;5052114;28;20108;-47
2023/01/14 03:13:59;;;;;;;19.23;5.43;;;6.00;99.90;;;;;;5052440;28;20454;-45
2023/01/14 03:16:46;;;;;;;22.45;3.10;;;6.00;99.90;;;;;;5052570;28;20036;-49
2023/01/14 03:19:19;;;;;;;21.85;3.17;;;6.00;99.90;;;;;;5052342;28;20056;-46
2023/01/14 03:21:49;;;;;;;20.08;3.40;;;6.10;99.90;;;;;;5050343;28;20056;-48
2023/01/14 03:24:15;;;;;;;21.20;3.22;;;;;;;;;;5051282;28;20501;-51
2023/01/14 03:26:46;;;;;;;27.25;3.53;;;5.90;99.90;;;;;;5052844;28;20044;-51
2023/01/14 03:29:16;;;;;;;18.38;3.38;;;5.90;99.90;;;;;;5052717;28;20044;-50
2023/01/14 03:31:52;;;;;;;25.92;3.83;;;5.80;99.90;;;;;;5052670;28;20077;-51
2023/01/14 03:34:25;;;;;;;30.38;3.80;;;5.70;99.90;;;;;;5052478;28;20217;-50
2023/01/14 03:36:52;;;;;;;28.23;3.92;;;5.80;99.90;;;;;;5053007;28;20181;-51
2023/01/14 03:39:22;;;;;;;21.25;3.53;;;5.60;99.90;;;;;;5053266;28;20328;-50
2023/01/14 03:44:54;;;;;;;25.95;3.75;;;5.50;99.90;;;;;;5054880;28;20524;-49
2023/01/14 03:47:21;;;;;;;25.58;3.97;;;5.50;99.90;;;;;;5055751;28;20028;-46
2023/01/14 03:49:49;;;;;;;20.83;3.63;;;5.40;99.90;;;;;;5056648;28;20044;-49
2023/01/14 03:52:15;;;;;;;20.17;3.10;;;;;;;;;;5056428;28;20044;-47
2023/01/14 03:54:53;;;;;;;18.75;3.20;;;5.10;99.90;;;;;;5057282;28;20205;-47
2023/01/14 03:57:30;;;;;;;29.13;4.38;;;5.20;99.90;;;;;;5056651;28;20041;-51
2023/01/14 04:00:21;;;;;;;27.35;3.65;;;5.40;99.90;;;;;;5056887;28;20489;-48
2023/01/14 04:02:47;;;;;;;29.73;4.38;;;;;;;;;;5054838;28;20048;-50
2023/01/14 04:05:13;;;;;;;26.42;3.38;;;5.30;99.90;;;;;;5054133;28;20076;-51
2023/01/14 04:07:39;;;;;;;26.77;5.47;;;;;;;;;;5055540;28;20043;-51
2023/01/14 04:10:06;;;;;;;23.35;3.35;;;;;;;;;;5055584;28;21536;-51
2023/01/14 04:12:32;;;;;;;20.42;2.78;;;;;;;;;;5056029;28;20041;-49
2023/01/14 04:17:42;;;;;;;24.48;5.25;;;5.50;99.90;;;;;;5055108;28;20044;-50
2023/01/14 04:20:08;;;;;;;20.08;3.15;;;5.40;99.90;;;;;;5055763;28;20032;-51
2023/01/14 04:22:34;;;;;;;20.67;2.92;;;;;;;;;;5056321;28;20504;-50
2023/01/14 04:25:01;;;;;;;20.15;3.38;;;;;;;;;;5055740;28;20055;-50
2023/01/14 04:27:27;;;;;;;18.20;3.20;;;;;;;;;;5054881;28;20043;-49
2023/01/14 04:29:53;;;;;;;22.40;4.85;;;;;;;;;;5055108;28;20592;-50
2023/01/14 04:32:19;;;;;;;17.40;2.78;;;;;;;;;;5053793;28;20048;-51
2023/01/14 04:34:44;;;;;;;37.17;6.18;;;5.30;99.90;;;;;;5055220;28;20044;-49
2023/01/14 04:37:11;;;;;;;27.25;3.58;;;;;;;;;;5054747;28;20139;-50
2023/01/14 04:39:37;;;;;;;29.23;4.07;;;;;;;;;;5055254;28;20052;-48
2023/01/14 04:44:48;;;;;;;20.92;3.45;;;;;;;;;;5055683;28;20052;-51
2023/01/14 04:47:15;;;;;;;19.33;2.60;;;;;;;;;;5053668;28;20033;-50
2023/01/14 04:49:40;;;;;;;28.05;4.35;;;5.40;99.90;;;;;;5054063;28;20032;-51
2023/01/14 04:52:06;;;;;;;22.13;3.28;;;;;;;;;;5054616;28;20097;-49
2023/01/14 04:54:32;;;;;;;19.83;3.25;;;;;;;;;;5056470;28;20185;-50
2023/01/14 04:56:59;;;;;;;26.52;4.20;;;;;;;;;;5054213;28;20189;-51
2023/01/14 04:59:24;;;;;;;23.95;3.15;;;5.40;99.90;;;;;;5054924;28;20038;-51
2023/01/14 05:01:50;;;;;;;22.25;3.20;;;5.40;99.90;;;;;;5056367;28;20044;-50
2023/01/14 05:04:16;;;;;;;22.10;3.20;;;;;;;;;;5055089;28;20075;-51
2023/01/14 05:06:42;;;;;;;19.65;3.30;;;;;;;;;;5055174;28;20180;-52
2023/01/14 05:09:08;;;;;;;16.98;3.55;;;;;;;;;;5055086;28;20056;-51
2023/01/14 05:11:34;;;;;;;20.88;3.40;;;5.40;99.90;;;;;;5056776;28;20032;-50
2023/01/14 05:14:00;;;;;;;18.95;2.95;;;;;;;;;;5054386;28;20118;-51
2023/01/14 05:16:27;;;;;;;22.02;3.80;;;;;;;;;;5055481;28;20401;-51
2023/01/14 05:18:53;;;;;;;20.63;3.70;;;;;;;;;;5053183;28;20140;-48
2023/01/14 05:21:19;;;;;;;23.63;3.55;;;5.20;99.90;;;;;;5054169;28;20051;-49
2023/01/14 05:23:46;;;;;;;20.92;3.85;;;5.40;99.90;;;;;;5054416;28;20465;-51
2023/01/14 05:26:12;;;;;;;22.70;3.17;;;;;;;;;;5053645;28;20482;-51
2023/01/14 05:28:38;;;;;;;17.73;2.97;;;;;;;;;;5054736;28;20045;-46
2023/01/14 05:31:04;;;;;;;19.77;4.03;;;5.40;99.90;;;;;;5054731;28;20053;-48
2023/01/14 05:33:30;;;;;;;21.52;3.42;;;5.20;99.90;;;;;;5053554;28;20059;-48
2023/01/14 05:35:57;;;;;;;24.33;4.57;;;5.20;99.90;;;;;;5054610;28;20421;-48
2023/01/14 05:38:24;;;;;;;29.40;3.55;;;;;;;;;;5054168;28;20409;-51
2023/01/14 05:40:50;;;;;;;28.70;4.68;;;;;;;;;;5053848;28;20075;-46
2023/01/14 05:46:07;;;;;;;21.15;3.55;;;5.40;99.90;;;;;;5055446;28;20056;-50
2023/01/14 05:48:33;;;;;;;21.83;4.00;;;5.50;99.90;;;;;;5054727;28;20417;-51
2023/01/14 05:51:00;;;;;;;28.02;4.65;;;5.30;99.90;;;;;;5053992;28;20048;-50
2023/01/14 05:53:29;;;;;;;32.80;4.57;;;5.40;99.90;;;;;;5053794;28;20052;-48
2023/01/14 05:55:57;;;;;;;21.92;3.60;;;5.40;99.90;;;;;;5053813;28;20046;-49
2023/01/14 05:58:23;;;;;;;23.45;3.55;;;3.70;99.90;;;;;;5054056;28;20040;-49
2023/01/14 06:06:31;;;;;;;31.15;4.70;;;5.50;99.90;;;;;;5054441;28;20064;-51
2023/01/14 06:09:00;;;;;;;27.48;5.80;;;5.50;99.90;;;;;;5054684;28;20909;-49
2023/01/14 06:11:27;;;;;;;25.48;4.88;;;5.40;99.90;;;;;;5055215;28;20060;-50
2023/01/14 06:13:56;;;;;;;27.48;3.92;;;5.40;99.90;;;;;;5054240;28;20036;-48
2023/01/14 06:16:24;;;;;;;23.05;3.58;;;5.60;99.90;;;;;;5055073;28;20568;-47
2023/01/14 06:18:50;;;;;;;25.17;3.92;;;;;;;;;;5054500;28;20123;-50
2023/01/14 06:21:19;;;;;;;19.95;3.63;;;5.50;99.90;;;;;;5054435;28;20067;-50
2023/01/14 06:23:45;;;;;;;30.98;5.25;;;5.60;99.90;;;;;;5053630;28;20116;-48
2023/01/14 06:26:14;;;;;;;29.60;4.28;;;5.50;99.90;;;;;;5053896;28;20037;-51
2023/01/14 06:28:39;;;;;;;21.67;3.63;;;5.40;99.90;;;;;;5053801;28;20528;-47
2023/01/14 06:31:13;;;;;;;26.23;4.53;;;5.50;99.90;;;;;;5054581;28;20044;-48
2023/01/14 06:33:39;;;;;;;31.00;4.78;;;5.50;99.90;;;;;;5051875;28;21625;-50
2023/01/14 06:36:07;;;;;;;25.48;4.68;;;5.30;99.90;;;;;;5053523;28;20435;-51
2023/01/14 06:38:33;;;;;;;25.00;4.70;;;7.00;99.90;;;;;;5052921;28;20121;-50
2023/01/14 06:41:04;;;;;;;26.70;5.28;;;5.40;99.90;;;;;;5052541;28;20036;-51
2023/01/14 06:43:30;;;;;;;26.98;4.97;;;;;;;;;;5052101;28;20052;-48
2023/01/14 06:45:56;;;;;;;21.48;4.85;;;5.30;99.90;;;;;;5053396;28;20094;-48
2023/01/14 06:48:23;;;;;;;32.75;5.43;;;5.40;99.90;;;;;;5051802;28;20094;-50
2023/01/14 06:50:50;;;;;;;25.25;5.43;;;;;;;;;;5052677;28;20052;-50
2023/01/14 06:53:16;;;;;;;35.35;6.05;;;;;;;;;;5053063;28;20412;-50
2023/01/14 06:55:42;;;;;;;28.02;4.97;;;;;;;;;;5052073;28;20483;-50
2023/01/14 06:58:09;;;;;;;31.50;4.63;;;;;;;;;;5050886;28;20041;-50
2023/01/14 07:00:35;;;;;;;32.65;6.55;;;;;;;;;;5052213;28;20094;-45
2023/01/14 07:03:01;;;;;;;31.77;5.72;;;;;;;;;;5050433;28;20102;-50
2023/01/14 07:05:27;;;;;;;28.15;4.90;;;;;;;;;;5052124;28;20055;-50
2023/01/14 07:07:53;;;;;;;29.35;5.05;;;;;;;;;;5051519;28;20097;-48
2023/01/14 07:10:20;;;;;;;28.75;6.20;;;;;;;;;;5052158;28;20095;-50
2023/01/14 07:12:51;;;;;;;38.05;7.97;;;5.40;99.90;;;;;;5052686;28;20032;-46
2023/01/14 07:15:18;;;;;;;29.83;6.18;;;5.50;99.90;;;;;;5053269;28;20037;-50
2023/01/14 07:17:48;;;;;;;38.00;7.35;;;5.50;99.90;;;;;;5051355;28;20452;-51
2023/01/14 07:20:15;;;;;;;33.97;6.90;;;5.40;99.90;;;;;;5051167;28;20046;-49
2023/01/14 07:22:41;;;;;;;37.55;6.70;;;5.40;99.90;;;;;;5051444;28;20109;-49
2023/01/14 07:25:07;;;;;;;35.83;6.38;;;5.50;99.90;;;;;;5051522;28;20048;-49
2023/01/14 07:27:34;;;;;;;35.97;6.85;;;;;;;;;;5052583;28;20040;-51
2023/01/14 07:29:59;;;;;;;27.48;5.82;;;5.40;99.90;;;;;;5051987;28;20048;-48
2023/01/14 07:32:26;;;;;;;32.85;6.00;;;;;;;;;;5048491;28;20397;-51
2023/01/14 07:34:52;;;;;;;28.13;5.78;;;;;;;;;;5050806;28;20099;-50
2023/01/14 07:37:18;;;;;;;30.70;5.82;;;5.50;99.90;;;;;;5052266;28;20041;-51
2023/01/14 07:39:44;;;;;;;29.17;6.25;;;;;;;;;;5053080;28;20037;-49
2023/01/14 07:42:10;;;;;;;35.58;7.15;;;;;;;;;;5053403;28;20106;-51
2023/01/14 07:44:36;;;;;;;37.17;5.95;;;;;;;;;;5053264;28;20496;-51
2023/01/14 07:47:02;;;;;;;31.50;7.40;;;5.50;99.90;;;;;;5052636;28;20497;-49
2023/01/14 07:49:28;;;;;;;33.38;5.65;;;5.60;99.90;;;;;;5053653;28;20037;-49
2023/01/14 07:51:54;;;;;;;31.95;8.15;;;;;;;;;;5053892;28;20052;-50
2023/01/14 07:54:20;;;;;;;26.00;4.78;;;5.60;99.90;;;;;;5052128;28;20766;-51
2023/01/14 07:56:47;;;;;;;27.95;5.07;;;5.70;99.90;;;;;;5052840;28;20032;-48
2023/01/14 07:59:13;;;;;;;27.58;5.20;;;;;;;;;;5052186;28;20044;-50
2023/01/14 08:01:39;;;;;;;26.30;5.97;;;5.80;99.90;;;;;;5053480;28;20036;-49
2023/01/14 08:04:05;;;;;;;22.55;5.68;;;;;;;;;;5051298;28;20851;-48
2023/01/14 08:06:31;;;;;;;39.58;6.20;;;5.60;99.90;;;;;;5051444;28;20116;-50
2023/01/14 08:09:00;;;;;;;27.02;5.53;;;5.70;99.90;;;;;;5051490;28;20503;-50
2023/01/14 08:11:25;;;;;;;35.20;8.05;;;5.60;99.90;;;;;;5051101;28;20079;-51
2023/01/14 08:13:51;;;;;;;37.72;6.57;;;;;;;;;;5051682;28;20454;-48
2023/01/14 08:16:18;;;;;;;30.48;5.22;;;;;;;;;;5052066;28;20992;-50
2023/01/14 08:18:44;;;;;;;32.55;5.57;;;;;;;;;;5051034;28;20048;-49
2023/01/14 08:21:10;;;;;;;42.42;6.32;;;;;;;;;;5050716;28;20158;-50
2023/01/14 08:23:36;;;;;;;27.50;5.85;;;5.80;99.90;;;;;;5052282;28;20149;-50
2023/01/14 08:26:03;;;;;;;34.83;5.82;;;5.80;99.90;;;;;;5051623;28;20098;-50
2023/01/14 08:28:29;;;;;;;36.15;5.57;;;5.70;99.90;;;;;;5050616;28;20043;-48
2023/01/14 08:31:06;;;;;;;30.20;5.93;;;5.70;99.90;;;;;;5051940;28;20044;-50
2023/01/14 08:33:32;;;;;;;35.00;6.18;;;5.60;99.90;;;;;;5053979;28;20039;-49
2023/01/14 08:36:07;;;;;;;36.80;6.13;;;5.70;99.90;;;;;;5054376;28;20052;-49
2023/01/14 08:38:34;;;;;;;35.17;8.57;;;5.70;99.90;;;;;;5054732;28;20115;-48
2023/01/14 08:41:11;;;;;;;24.35;5.07;;;5.90;99.90;;;;;;5053699;28;20048;-51
2023/01/14 08:43:38;;;;;;;42.22;6.63;;;5.70;99.90;;;;;;5053784;28;20068;-45
2023/01/14 08:46:06;;;;;;;22.23;4.38;;;5.70;99.90;;;;;;5055232;28;20430;-48
2023/01/14 08:48:32;;;;;;;32.50;4.95;;;5.60;99.90;;;;;;5053597;28;20120;-48
2023/01/14 08:51:03;;;;;;;32.92;5.15;;;5.80;99.90;;;;;;5054422;28;20051;-51
2023/01/14 08:53:29;;;;;;;23.20;4.35;;;5.70;99.90;;;;;;5053776;28;21062;-51
2023/01/14 08:55:56;;;;;;;30.88;5.68;;;5.60;99.90;;;;;;5054364;28;20334;-46
2023/01/14 08:58:22;;;;;;;23.48;4.30;;;5.50;99.90;;;;;;5055564;28;20155;-49
2023/01/14 09:00:48;;;;;;;30.15;4.70;;;;;;;;;;5053921;28;20044;-49
2023/01/14 09:03:13;;;;;;;21.10;4.60;;;5.70;99.90;;;;;;5054995;28;20052;-48
2023/01/14 09:05:40;;;;;;;27.25;4.72;;;;;;;;;;5055570;28;20121;-48
2023/01/14 09:19:09;;;;;;;27.90;3.88;;;;;;;;;;5054343;28;20102;-49
2023/01/14 09:21:35;;;;;;;23.65;4.47;;;;;;;;;;5055518;28;20032;-46
2023/01/14 09:24:00;;;;;;;28.02;4.25;;;5.80;99.90;;;;;;5055089;28;21262;-48
2023/01/14 09:26:26;;;;;;;25.52;4.07;;;5.70;99.90;;;;;;5054510;28;20045;-48
2023/01/14 09:28:52;;;;;;;26.50;5.70;;;5.60;99.90;;;;;;5055647;28;20401;-50
2023/01/14 09:31:18;;;;;;;21.80;3.55;;;5.70;99.90;;;;;;5055074;28;20040;-46
2023/01/14 09:33:44;;;;;;;24.40;5.22;;;5.70;99.90;;;;;;5055239;28;20052;-49
2023/01/14 09:36:10;;;;;;;22.17;4.10;;;5.50;99.90;;;;;;5053123;28;20041;-48
2023/01/14 09:38:36;;;;;;;22.52;5.18;;;;;;;;;;5055391;28;20040;-48
2023/01/14 09:41:01;;;;;;;22.10;3.70;;;5.60;99.90;;;;;;5055902;28;20045;-50
2023/01/14 09:43:30;;;;;;;18.85;3.38;;;5.80;99.90;;;;;;5053650;28;20079;-47
2023/01/14 09:45:59;;;;;;;24.08;4.15;;;5.60;99.90;;;;;;5055836;28;20052;-50
2023/01/14 09:48:27;;;;;;;22.88;5.10;;;5.60;99.90;;;;;;5053471;28;20043;-51
2023/01/14 09:51:26;;;;;;;24.65;3.88;;;5.70;99.90;;;;;;5053495;28;20040;-47
2023/01/14 09:53:52;;;;;;;17.23;3.33;;;;;;;;;;5053570;28;20436;-50
2023/01/14 09:56:31;;;;;;;29.48;3.97;;;5.70;99.90;;;;;;5053983;28;20581;-46
2023/01/14 09:59:26;;;;;;;19.63;3.17;;;5.70;99.90;;;;;;5052868;28;20120;-50
2023/01/14 10:01:59;;;;;;;18.70;3.40;;;5.80;99.90;;;;;;5052614;28;20040;-49
2023/01/14 10:04:25;;;;;;;16.92;3.50;;;;;;;;;;5053598;28;20141;-49
2023/01/14 10:06:54;;;;;;;20.85;3.00;;;5.80;99.90;;;;;;5053085;28;20056;-46
2023/01/14 10:09:40;;;;;;;15.23;2.70;;;5.90;99.90;;;;;;5052659;28;20059;-51
2023/01/14 10:12:12;;;;;;;13.70;2.97;;;5.90;99.90;;;;;;5052496;28;20040;-50
2023/01/14 10:14:49;;;;;;;12.05;2.35;;;5.80;99.90;;;;;;5052127;28;20055;-51
2023/01/14 10:17:19;;;;;;;11.85;2.80;;;5.90;99.90;;;;;;5052294;28;20036;-49
2023/01/14 10:19:50;;;;;;;17.40;2.95;;;5.90;99.90;;;;;;5052746;28;20500;-51
2023/01/14 10:22:34;;;;;;;12.77;2.90;;;6.10;99.90;;;;;;5051906;28;20048;-48
2023/01/14 10:25:01;;;;;;;10.55;3.88;;;;;;;;;;5052425;28;21989;-49
2023/01/14 10:27:31;;;;;;;10.40;2.30;;;6.10;99.90;;;;;;5053191;28;20462;-48
2023/01/14 10:30:25;;;;;;;12.95;2.85;;;6.20;99.90;;;;;;5052944;28;20049;-47
2023/01/14 10:32:53;;;;;;;8.23;2.22;;;6.10;99.90;;;;;;5047973;28;20071;-51
2023/01/14 10:35:29;;;;;;;9.40;2.08;;;6.20;99.90;;;;;;5053340;28;20583;-49
2023/01/14 10:37:55;;;;;;;6.65;1.88;;;6.30;99.90;;;;;;5052094;28;20041;-49
2023/01/14 10:40:24;;;;;;;7.55;1.90;;;6.30;99.90;;;;;;5052649;28;20409;-48
2023/01/14 10:42:52;;;;;;;8.57;2.13;;;6.50;99.90;;;;;;5053543;28;20051;-51
2023/01/14 10:45:18;;;;;;;5.75;1.88;;;6.60;99.90;;;;;;5053998;28;20182;-47
2023/01/14 10:47:46;;;;;;;10.07;1.83;;;6.70;99.90;;;;;;5053314;28;20044;-51
2023/01/14 10:50:23;;;;;;;8.55;2.15;;;6.70;99.90;;;;;;5052785;28;20110;-48
2023/01/14 10:52:50;;;;;;;8.25;1.75;;;6.70;99.90;;;;;;5051489;28;20136;-49
2023/01/14 10:55:18;;;;;;;5.88;1.70;;;6.60;99.90;;;;;;5052094;28;20044;-51
2023/01/14 10:58:05;;;;;;;10.60;1.90;;;6.80;99.90;;;;;;5052498;28;20582;-49
2023/01/14 11:00:39;;;;;;;6.75;1.92;;;6.70;99.90;;;;;;5052745;28;20087;-48
2023/01/14 11:03:08;;;;;;;8.77;2.50;;;6.70;99.90;;;;;;5052472;28;20117;-49
2023/01/14 11:05:37;;;;;;;6.78;1.92;;;6.70;99.90;;;;;;5053901;28;20103;-51
2023/01/14 11:08:19;;;;;;;7.32;2.20;;;6.90;99.90;;;;;;5053219;28;20079;-48
2023/01/14 11:10:52;;;;;;;8.13;2.20;;;6.70;99.90;;;;;;5051418;28;20397;-48
2023/01/14 11:13:27;;;;;;;10.13;2.00;;;6.80;99.90;;;;;;5050910;28;20505;-51
2023/01/14 11:15:53;;;;;;;11.73;2.65;;;6.80;99.90;;;;;;5052549;28;20063;-50
2023/01/14 11:18:19;;;;;;;5.18;1.60;;;6.80;99.90;;;;;;5049208;28;20064;-50
2023/01/14 11:21:15;;;;;;;7.68;1.90;;;6.80;99.90;;;;;;5049917;28;20064;-49
2023/01/14 11:23:57;;;;;;;6.13;1.60;;;6.90;99.90;;;;;;5050953;28;20136;-49
2023/01/14 11:26:32;;;;;;;8.60;1.92;;;6.70;99.90;;;;;;5050877;28;20608;-50
2023/01/14 11:29:16;;;;;;;5.18;1.80;;;6.60;99.90;;;;;;5050617;28;20052;-51
2023/01/14 11:31:44;;;;;;;6.82;1.90;;;6.50;99.90;;;;;;5050894;28;20461;-48
2023/01/14 11:34:35;;;;;;;6.93;1.80;;;6.70;99.90;;;;;;5050599;28;20144;-50
2023/01/14 11:37:13;;;;;;;4.50;1.65;;;6.70;99.90;;;;;;5051474;28;20053;-49
2023/01/14 11:39:44;;;;;;;4.90;1.40;;;6.80;99.90;;;;;;5051442;28;20052;-49
2023/01/14 11:42:29;;;;;;;5.75;1.80;;;6.70;99.90;;;;;;5050220;28;20371;-49
2023/01/14 11:45:16;;;;;;;7.63;1.92;;;6.70;99.90;;;;;;5051142;28;20059;-50
2023/01/14 11:47:56;;;;;;;5.72;1.75;;;6.80;99.90;;;;;;5052902;28;20051;-46
2023/01/14 11:50:26;;;;;;;5.13;1.65;;;6.70;99.90;;;;;;5050363;28;20708;-52
2023/01/14 11:53:14;;;;;;;7.03;1.80;;;6.80;99.90;;;;;;5052140;28;20170;-49
2023/01/14 11:55:40;;;;;;;6.45;1.48;;;6.70;99.90;;;;;;5051192;28;20086;-49
2023/01/14 11:58:24;;;;;;;6.38;2.00;;;6.70;99.90;;;;;;5052488;28;20400;-49
2023/01/14 12:00:55;;;;;;;10.15;1.98;;;6.80;99.90;;;;;;5051693;28;20044;-46
2023/01/14 12:03:37;;;;;;;9.00;2.13;;;6.70;99.90;;;;;;5050691;28;20047;-47
2023/01/14 12:06:11;;;;;;;6.00;1.83;;;6.80;99.90;;;;;;5051875;28;20155;-49
2023/01/14 12:08:39;;;;;;;6.63;1.90;;;6.80;99.90;;;;;;5055509;28;20083;-48
2023/01/14 12:11:15;;;;;;;5.50;1.70;;;6.90;99.90;;;;;;5057293;28;20040;-48
2023/01/14 12:16:59;;;;;;;6.38;1.90;;;7.00;99.90;;;;;;5057059;28;20501;-50
2023/01/14 12:19:36;;;;;;;5.72;1.75;;;7.00;99.90;;;;;;5056573;28;20039;-49
2023/01/14 12:22:22;;;;;;;7.55;2.08;;;6.90;99.90;;;;;;5056290;28;20056;-47
2023/01/14 12:25:20;;;;;;;5.53;1.73;;;7.20;99.90;;;;;;5055478;28;20135;-49
2023/01/14 12:27:59;;;;;;;6.65;1.67;;;7.10;99.90;;;;;;5054700;28;20071;-50
2023/01/14 12:30:25;;;;;;;5.55;1.65;;;7.10;99.90;;;;;;5056239;28;20202;-50
2023/01/14 12:32:55;;;;;;;5.90;1.52;;;7.30;99.90;;;;;;5054860;28;20564;-51
2023/01/14 12:35:23;;;;;;;7.47;1.55;;;7.10;99.90;;;;;;5055487;28;20048;-50
2023/01/14 12:37:54;;;;;;;3.92;1.50;;;7.20;99.90;;;;;;5054212;28;20040;-46
2023/01/14 12:46:12;;;;;;;4.88;1.17;;;7.40;99.90;;;;;;5054758;28;22058;-49
2023/01/14 12:48:39;;;;;;;4.85;1.30;;;7.50;99.90;;;;;;5054619;28;20049;-51
2023/01/14 12:51:21;;;;;;;6.82;1.48;;;7.40;99.90;;;;;;5055186;28;20135;-49
2023/01/14 12:53:50;;;;;;;;;;;7.50;99.90;;;;;;5054939;28;20040;-50
2023/01/14 12:56:48;;;;;;;7.43;1.75;;;7.60;99.90;;;;;;5054113;28;20033;-50
2023/01/14 12:59:34;;;;;;;4.88;1.05;;;7.70;99.90;;;;;;5053890;28;20071;-50
2023/01/14 13:02:29;;;;;;;3.92;1.27;;;7.60;99.90;;;;;;5054509;28;20501;-49
2023/01/14 13:05:01;;;;;;;5.28;1.42;;;7.60;99.90;;;;;;5054478;28;20068;-49
2023/01/14 13:07:31;;;;;;;3.53;1.30;;;7.70;99.90;;;;;;5054248;28;20888;-49
2023/01/14 13:10:02;;;;;;;6.18;1.48;;;8.00;99.90;;;;;;5053324;28;20036;-50
2023/01/14 13:12:39;;;;;;;3.50;1.02;;;7.90;99.90;;;;;;5051881;28;20040;-49
2023/01/14 13:15:27;;;;;;;4.45;1.30;;;8.10;99.90;;;;;;5051644;28;20063;-49
2023/01/14 13:17:58;;;;;;;5.38;1.33;;;8.10;99.90;;;;;;5066244;28;20060;-50
2023/01/14 13:20:32;;;;;;;3.95;1.40;;;8.10;99.90;;;;;;5053425;28;20148;-46
2023/01/14 13:23:02;;;;;;;3.63;1.10;;;8.10;99.90;;;;;;5054364;28;20700;-50
2023/01/14 13:25:38;;;;;;;5.30;1.00;;;8.10;99.90;;;;;;5053402;28;20056;-50
2023/01/14 13:28:10;;;;;;;3.08;1.10;;;8.10;99.90;;;;;;5053841;28;20139;-50
2023/01/14 13:31:14;;;;;;;3.13;1.60;;;8.50;99.90;;;;;;5054219;28;20504;-47
2023/01/14 13:33:41;;;;;;;3.03;0.93;;;8.30;99.90;;;;;;5055168;28;20057;-50
2023/01/14 13:36:09;;;;;;;2.63;0.85;;;8.30;99.90;;;;;;5053278;28;20052;-51
2023/01/14 13:38:39;;;;;;;3.50;0.90;;;8.40;99.90;;;;;;5053270;28;20325;-50
2023/01/14 13:41:06;;;;;;;3.15;0.90;;;8.30;99.90;;;;;;5055192;28;20097;-47
2023/01/14 13:43:38;;;;;;;2.13;1.10;;;8.50;99.90;;;;;;5054032;28;20149;-49
2023/01/14 13:46:07;;;;;;;3.97;1.55;;;9.90;99.90;;;;;;5055491;28;20082;-51
2023/01/14 13:48:50;;;;;;;2.22;0.80;;;8.60;99.90;;;;;;5054691;28;20036;-50
2023/01/14 13:51:29;;;;;;;1.08;0.70;;;9.60;99.90;;;;;;5055384;28;20048;-51
2023/01/14 13:54:06;;;;;;;1.83;0.80;;;8.60;99.90;;;;;;5054152;28;20454;-51
2023/01/14 13:56:33;;;;;;;2.05;1.00;;;8.70;99.90;;;;;;5055245;28;20048;-50
2023/01/14 13:59:00;;;;;;;3.92;1.00;;;8.60;99.90;;;;;;5053327;28;20044;-49
2023/01/14 14:01:45;;;;;;;1.50;0.68;;;8.80;99.90;;;;;;5055082;28;20044;-51
2023/01/14 14:04:12;;;;;;;2.90;0.80;;;8.70;99.90;;;;;;5055243;28;20070;-50
2023/01/14 14:06:41;;;;;;;2.05;0.90;;;8.90;99.90;;;;;;5054301;28;20577;-50
2023/01/14 14:09:17;;;;;;;2.88;1.02;;;8.80;99.90;;;;;;5054329;28;20044;-50